createdAt,value
2019-03-12T00:00:48.681Z,62.94
2019-03-12T00:07:31.900Z,63.19
2019-03-12T00:17:28.924Z,63.36
2019-03-12T00:20:32.075Z,63.28
2019-03-12T00:23:35.211Z,63.69
2019-03-12T00:26:38.347Z,64.08
2019-03-12T00:29:41.435Z,64.40
2019-03-12T00:32:45.103Z,64.66
2019-03-12T00:35:48.244Z,65.30
2019-03-12T00:38:51.421Z,64.93
2019-03-12T00:41:54.747Z,65.26
2019-03-12T00:44:58.019Z,65.93
2019-03-12T00:48:01.243Z,66.23
2019-03-12T00:51:04.399Z,66.69
2019-03-12T00:54:07.639Z,66.38
2019-03-12T00:57:10.832Z,66.85
2019-03-12T01:00:15.228Z,67.01
2019-03-12T01:03:18.415Z,67.39
2019-03-12T01:06:21.602Z,67.49
2019-03-12T01:09:24.825Z,67.69
2019-03-12T01:12:28.101Z,67.79
2019-03-12T01:15:31.297Z,68.04
2019-03-12T01:18:34.611Z,68.43
2019-03-12T01:21:37.887Z,68.00
2019-03-12T01:24:41.008Z,68.17
2019-03-12T01:27:44.176Z,68.19
2019-03-12T01:30:47.383Z,68.39
2019-03-12T01:33:50.929Z,68.66
2019-03-12T01:36:54.088Z,69.05
2019-03-12T01:39:57.311Z,69.17
2019-03-12T01:43:00.466Z,69.31
2019-03-12T01:46:03.657Z,69.58
2019-03-12T01:49:06.844Z,69.25
2019-03-12T01:52:10.028Z,69.82
2019-03-12T01:55:13.121Z,69.88
2019-03-12T01:58:16.347Z,69.95
2019-03-12T02:01:19.458Z,69.86
2019-03-12T02:04:22.593Z,69.98
2019-03-12T02:07:25.809Z,70.26
2019-03-12T02:10:28.993Z,70.50
2019-03-12T02:13:32.201Z,70.54
2019-03-12T02:16:35.399Z,70.40
2019-03-12T02:19:38.594Z,70.70
2019-03-12T02:22:41.781Z,71.09
2019-03-12T02:25:44.962Z,71.05
2019-03-12T02:28:48.148Z,71.14
2019-03-12T02:31:51.345Z,71.63
2019-03-12T02:34:54.446Z,71.74
2019-03-12T02:37:57.643Z,71.79
2019-03-12T02:41:00.832Z,72.46
2019-03-12T02:44:04.052Z,71.95
2019-03-12T02:47:07.222Z,72.44
2019-03-12T02:50:10.947Z,72.48
2019-03-12T02:53:14.131Z,72.65
2019-03-12T02:56:17.332Z,73.44
2019-03-12T02:59:20.610Z,73.46
2019-03-12T03:02:23.700Z,73.42
2019-03-12T03:05:26.896Z,73.31
2019-03-12T03:08:32.200Z,73.73
2019-03-12T03:11:35.389Z,73.30
2019-03-12T03:14:39.621Z,73.93
2019-03-12T03:17:42.739Z,74.07
2019-03-12T03:20:45.953Z,73.90
2019-03-12T03:23:49.145Z,74.45
2019-03-12T03:26:52.343Z,74.72
2019-03-12T03:29:55.538Z,75.15
2019-03-12T03:32:58.756Z,74.83
2019-03-12T03:36:01.903Z,74.60
2019-03-12T03:39:05.950Z,74.58
2019-03-12T03:42:09.138Z,74.58
2019-03-12T03:45:12.380Z,75.01
2019-03-12T03:48:15.557Z,74.99
2019-03-12T03:51:18.707Z,74.79
2019-03-12T03:54:21.906Z,74.97
2019-03-12T03:57:25.108Z,74.86
2019-03-12T04:00:28.295Z,75.52
2019-03-12T04:03:31.490Z,75.46
2019-03-12T04:06:34.773Z,75.41
2019-03-12T04:09:37.880Z,75.29
2019-03-12T04:12:41.025Z,75.87
2019-03-12T04:15:44.153Z,75.90
2019-03-12T04:18:47.372Z,75.78
2019-03-12T04:21:50.661Z,75.65
2019-03-12T04:24:59.843Z,75.68
2019-03-12T04:28:02.992Z,75.58
2019-03-12T04:31:06.180Z,75.76
2019-03-12T04:34:12.830Z,74.68
2019-03-12T04:37:21.811Z,75.62
2019-03-12T04:40:28.035Z,75.86
2019-03-12T04:43:31.346Z,75.89
2019-03-12T04:46:34.535Z,75.81
2019-03-12T04:49:37.740Z,75.67
2019-03-12T04:52:40.938Z,75.57
2019-03-12T04:55:44.131Z,76.10
2019-03-12T04:58:47.343Z,76.46
2019-03-12T05:01:50.616Z,75.65
2019-03-12T05:04:53.812Z,76.86
2019-03-12T05:07:57.007Z,76.74
2019-03-12T05:11:00.157Z,76.73
2019-03-12T05:14:22.795Z,76.72
2019-03-12T05:17:28.140Z,75.36
2019-03-12T05:20:31.377Z,75.81
2019-03-12T05:23:34.574Z,76.82
2019-03-12T05:26:37.864Z,76.64
2019-03-12T05:29:40.972Z,77.28
2019-03-12T05:32:44.259Z,76.95
2019-03-12T05:35:47.468Z,77.44
2019-03-12T05:38:50.655Z,77.63
2019-03-12T05:41:53.843Z,76.89
2019-03-12T05:44:57.101Z,76.29
2019-03-12T05:48:00.144Z,76.86
2019-03-12T05:51:03.341Z,76.54
2019-03-12T05:54:06.516Z,75.83
2019-03-12T05:57:10.153Z,75.59
2019-03-12T06:00:14.303Z,75.52
2019-03-12T06:03:17.436Z,75.50
2019-03-12T06:06:20.620Z,74.68
2019-03-12T06:09:30.278Z,74.90
2019-03-12T06:12:27.728Z,74.39
2019-03-12T06:15:30.914Z,74.08
2019-03-12T06:18:34.128Z,74.80
2019-03-12T06:21:37.324Z,74.14
2019-03-12T06:24:40.539Z,75.71
2019-03-12T06:27:43.720Z,74.76
2019-03-12T06:30:52.980Z,74.94
2019-03-12T06:34:00.631Z,74.68
2019-03-12T06:37:08.011Z,74.69
2019-03-12T06:40:16.418Z,75.15
2019-03-12T06:43:26.839Z,74.76
2019-03-12T06:46:35.388Z,75.11
2019-03-12T06:49:46.165Z,74.99
2019-03-12T06:52:53.463Z,75.74
2019-03-12T06:56:05.809Z,75.41
2019-03-12T06:59:20.300Z,75.07
2019-03-12T07:02:27.753Z,75.25
2019-03-12T07:05:36.235Z,75.26
2019-03-12T07:08:45.569Z,75.40
2019-03-12T07:11:54.708Z,75.38
2019-03-12T07:15:06.071Z,75.42
2019-03-12T07:18:17.468Z,74.96
2019-03-12T07:21:25.752Z,74.29
2019-03-12T07:24:36.096Z,73.80
2019-03-12T07:27:45.002Z,73.70
2019-03-12T07:31:56.900Z,72.76
2019-03-12T07:35:05.426Z,72.52
2019-03-12T07:38:31.107Z,71.39
2019-03-12T07:41:42.470Z,71.25
2019-03-12T07:44:50.924Z,70.92
2019-03-12T07:48:15.519Z,70.09
2019-03-12T07:51:30.993Z,69.47
2019-03-12T07:54:53.348Z,68.54
2019-03-12T07:59:08.992Z,68.36
2019-03-12T08:02:15.282Z,67.94
2019-03-12T08:05:23.992Z,67.71
2019-03-12T08:09:05.987Z,67.48
2019-03-12T08:12:16.230Z,67.20
2019-03-12T08:15:24.931Z,67.33
2019-03-12T08:18:35.474Z,66.39
2019-03-12T08:21:41.599Z,65.57
2019-03-12T08:24:53.902Z,64.38
2019-03-12T08:28:02.260Z,63.26
2019-03-12T08:31:10.775Z,62.71
2019-03-12T08:34:19.432Z,61.45
2019-03-12T08:37:27.766Z,61.23
2019-03-12T08:40:38.212Z,60.61
2019-03-12T08:43:48.299Z,60.49
2019-03-12T08:46:56.972Z,59.04
2019-03-12T08:50:10.327Z,58.43
2019-03-12T08:53:20.131Z,58.16
2019-03-12T08:56:27.469Z,56.56
2019-03-12T08:59:39.691Z,57.09
2019-03-12T09:02:47.930Z,56.77
2019-03-12T09:05:56.136Z,55.52
2019-03-12T09:09:05.477Z,55.73
2019-03-12T09:12:12.822Z,54.73
2019-03-12T09:16:19.160Z,54.18
2019-03-12T09:21:30.608Z,53.95
2019-03-12T09:24:38.000Z,51.88
2019-03-12T09:27:57.570Z,51.77
2019-03-12T09:31:08.774Z,52.10
2019-03-12T09:34:27.020Z,52.80
2019-03-12T09:37:34.407Z,52.78
2019-03-12T09:40:48.772Z,52.50
2019-03-12T09:43:58.033Z,52.07
2019-03-12T09:47:12.123Z,52.55
2019-03-12T09:50:20.427Z,50.89
2019-03-12T09:53:27.737Z,51.90
2019-03-12T09:56:35.130Z,51.41
2019-03-12T09:59:46.300Z,50.56
2019-03-12T10:03:00.714Z,49.85
2019-03-12T10:06:08.068Z,49.31
2019-03-12T10:09:18.031Z,49.34
2019-03-12T10:13:00.990Z,49.31
2019-03-12T10:16:13.286Z,47.31
2019-03-12T10:19:20.978Z,48.07
2019-03-12T10:22:28.322Z,47.59
2019-03-12T10:25:35.637Z,46.39
2019-03-12T10:28:44.303Z,46.16
2019-03-12T10:31:56.585Z,45.18
2019-03-12T10:35:03.957Z,45.15
2019-03-12T10:38:26.227Z,44.36
2019-03-12T10:41:34.596Z,44.22
2019-03-12T10:44:41.912Z,43.31
2019-03-12T10:47:45.715Z,42.04
2019-03-12T10:50:48.855Z,42.76
2019-03-12T10:53:52.049Z,42.07
2019-03-12T10:56:55.230Z,42.95
2019-03-12T10:59:58.420Z,43.24
2019-03-12T11:03:02.061Z,42.56
2019-03-12T11:06:05.220Z,42.60
2019-03-12T11:09:08.584Z,42.57
2019-03-12T11:12:11.691Z,42.38
2019-03-12T11:15:14.921Z,42.54
2019-03-12T11:18:18.116Z,42.62
2019-03-12T11:21:21.400Z,42.98
2019-03-12T11:24:24.597Z,42.86
2019-03-12T11:27:27.781Z,43.01
2019-03-12T11:30:30.984Z,43.01
2019-03-12T11:33:34.210Z,42.74
2019-03-12T11:36:37.487Z,43.63
2019-03-12T11:39:40.926Z,42.66
2019-03-12T11:42:43.868Z,42.95
2019-03-12T11:45:47.054Z,42.75
2019-03-12T11:48:50.245Z,43.24
2019-03-12T11:51:53.502Z,42.34
2019-03-12T11:54:56.696Z,42.50
2019-03-12T11:58:00.653Z,41.80
2019-03-12T12:01:05.427Z,41.36
2019-03-12T12:04:08.601Z,40.54
2019-03-12T12:07:11.783Z,38.66
2019-03-12T12:10:15.080Z,38.39
2019-03-12T12:13:19.246Z,38.31
2019-03-12T12:16:23.134Z,39.16
2019-03-12T12:19:26.298Z,39.76
2019-03-12T12:22:29.616Z,40.12
2019-03-12T12:25:32.793Z,39.85
2019-03-12T12:28:36.028Z,40.05
2019-03-12T12:31:39.268Z,40.38
2019-03-12T12:34:42.492Z,41.27
2019-03-12T12:37:45.677Z,40.40
2019-03-12T12:40:48.892Z,41.46
2019-03-12T12:43:52.052Z,40.88
2019-03-12T12:46:55.250Z,39.84
2019-03-12T12:49:58.429Z,37.47
2019-03-12T12:53:01.640Z,37.66
2019-03-12T12:56:04.845Z,36.46
2019-03-12T12:59:08.027Z,35.51
2019-03-12T13:02:11.217Z,36.09
2019-03-12T13:05:14.710Z,35.13
2019-03-12T13:08:17.799Z,35.19
2019-03-12T13:11:20.876Z,34.54
2019-03-12T13:14:24.120Z,34.96
2019-03-12T13:17:27.319Z,34.80
2019-03-12T13:20:30.485Z,34.75
2019-03-12T13:23:36.009Z,34.06
2019-03-12T13:26:36.882Z,32.87
2019-03-12T13:29:40.133Z,32.77
2019-03-12T13:32:43.258Z,32.37
2019-03-12T13:35:49.281Z,33.49
2019-03-12T13:38:49.787Z,31.95
2019-03-12T13:41:52.996Z,32.83
2019-03-12T13:44:56.354Z,32.99
2019-03-12T13:47:59.475Z,32.94
2019-03-12T13:51:02.868Z,33.29
2019-03-12T13:54:09.483Z,33.30
2019-03-12T13:57:09.355Z,33.19
2019-03-12T14:00:15.319Z,33.21
2019-03-12T14:03:18.413Z,32.24
2019-03-12T14:06:21.572Z,32.18
2019-03-12T14:09:24.896Z,31.64
2019-03-12T14:12:28.109Z,31.97
2019-03-12T14:15:31.230Z,31.49
2019-03-12T14:18:34.384Z,32.30
2019-03-12T14:21:40.020Z,31.67
2019-03-12T14:24:43.872Z,31.42
2019-03-12T14:27:47.053Z,31.26
2019-03-12T14:30:50.224Z,32.02
2019-03-12T14:33:53.408Z,32.53
2019-03-12T14:36:56.603Z,32.53
2019-03-12T14:39:59.793Z,32.66
2019-03-12T14:43:02.997Z,32.53
2019-03-12T14:46:06.176Z,33.01
2019-03-12T14:49:09.980Z,33.13
2019-03-12T14:52:19.177Z,32.86
2019-03-12T14:55:22.307Z,33.29
2019-03-12T14:58:25.506Z,33.81
2019-03-12T15:01:28.705Z,34.03
2019-03-12T15:04:31.794Z,33.91
2019-03-12T15:07:34.996Z,34.73
2019-03-12T15:10:38.189Z,34.13
2019-03-12T15:13:41.369Z,34.65
2019-03-12T15:16:44.465Z,35.29
2019-03-12T15:19:47.563Z,34.26
2019-03-12T15:22:50.661Z,34.66
2019-03-12T15:25:53.843Z,32.75
2019-03-12T15:28:57.039Z,33.51
2019-03-12T15:32:04.479Z,33.86
2019-03-12T15:35:03.447Z,33.57
2019-03-12T15:38:06.631Z,33.24
2019-03-12T15:41:09.816Z,32.71
2019-03-12T15:44:12.895Z,32.72
2019-03-12T15:47:16.000Z,32.50
2019-03-12T15:50:19.160Z,33.25
2019-03-12T15:53:22.307Z,33.52
2019-03-12T15:56:25.506Z,33.03
2019-03-12T15:59:28.687Z,32.70
2019-03-12T16:02:31.883Z,32.37
2019-03-12T16:05:35.056Z,32.74
2019-03-12T16:08:39.179Z,31.77
2019-03-12T16:11:42.426Z,31.93
2019-03-12T16:14:45.828Z,31.81
2019-03-12T16:17:48.991Z,31.92
2019-03-12T16:20:52.131Z,32.20
2019-03-12T16:23:55.310Z,32.29
2019-03-12T16:26:58.659Z,32.17
2019-03-12T16:30:01.907Z,32.25
2019-03-12T16:33:05.477Z,32.25
2019-03-12T16:36:08.658Z,32.45
2019-03-12T16:39:11.851Z,31.91
2019-03-12T16:42:14.941Z,31.69
2019-03-12T16:45:18.247Z,31.66
2019-03-12T16:48:21.423Z,31.74
2019-03-12T16:51:24.635Z,31.65
2019-03-12T16:54:27.860Z,31.87
2019-03-12T16:57:31.122Z,31.73
2019-03-12T17:00:34.950Z,32.20
2019-03-12T17:03:38.239Z,32.49
2019-03-12T17:06:41.327Z,33.09
2019-03-12T17:09:44.550Z,33.00
2019-03-12T17:12:47.857Z,32.95
2019-03-12T17:15:54.600Z,33.92
2019-03-12T17:18:54.321Z,34.67
2019-03-12T17:21:57.505Z,35.08
2019-03-12T17:25:00.628Z,35.10
2019-03-12T17:28:03.904Z,35.22
2019-03-12T17:31:07.090Z,35.86
2019-03-12T17:34:10.281Z,36.53
2019-03-12T17:37:13.565Z,37.33
2019-03-12T17:40:18.451Z,38.09
2019-03-12T17:43:21.612Z,39.04
2019-03-12T17:46:24.816Z,39.87
2019-03-12T17:49:27.997Z,40.67
2019-03-12T17:52:31.186Z,41.15
2019-03-12T17:55:34.281Z,41.54
2019-03-12T17:58:37.475Z,41.55
2019-03-12T18:01:40.702Z,41.88
2019-03-12T18:04:43.868Z,41.94
2019-03-12T18:07:47.077Z,41.83
2019-03-12T18:10:50.152Z,42.18
2019-03-12T18:13:53.347Z,42.22
2019-03-12T18:16:56.567Z,42.80
2019-03-12T18:19:59.852Z,42.61
2019-03-12T18:23:03.062Z,42.10
2019-03-12T18:26:08.361Z,42.42
2019-03-12T18:29:11.928Z,42.86
2019-03-12T18:32:15.061Z,42.61
2019-03-12T18:35:18.403Z,42.51
2019-03-12T18:38:21.662Z,43.02
2019-03-12T18:41:24.873Z,42.94
2019-03-12T18:44:28.015Z,43.16
2019-03-12T18:47:31.170Z,43.12
2019-03-12T18:50:34.378Z,42.80
2019-03-12T18:53:37.569Z,43.37
2019-03-12T18:56:40.759Z,43.08
2019-03-12T18:59:43.926Z,43.04
2019-03-12T19:02:47.067Z,43.39
2019-03-12T19:05:50.196Z,43.08
2019-03-12T19:08:53.408Z,43.19
2019-03-12T19:11:56.636Z,43.15
2019-03-12T19:14:59.801Z,43.03
2019-03-12T19:18:03.145Z,43.21
2019-03-12T19:21:06.317Z,43.11
2019-03-12T19:24:09.515Z,43.62
2019-03-12T19:27:12.687Z,43.38
2019-03-12T19:30:15.975Z,43.40
2019-03-12T19:33:19.203Z,42.91
2019-03-12T19:36:22.464Z,43.39
2019-03-12T19:39:25.664Z,43.40
2019-03-12T19:42:28.865Z,43.50
2019-03-12T19:45:32.006Z,43.48
2019-03-12T19:48:35.147Z,43.76
2019-03-12T19:51:38.374Z,43.51
2019-03-12T19:54:41.898Z,43.94
2019-03-12T19:57:45.072Z,43.92
2019-03-12T20:00:48.498Z,43.79
2019-03-12T20:03:51.620Z,44.04
2019-03-12T20:06:55.545Z,43.72
2019-03-12T20:10:15.030Z,43.80
2019-03-12T20:13:30.336Z,43.51
2019-03-12T20:16:44.370Z,43.41
2019-03-12T20:20:19.768Z,43.10
2019-03-12T20:23:46.856Z,42.56
2019-03-12T20:29:11.271Z,42.77
2019-03-12T20:32:27.393Z,42.69
2019-03-12T20:35:46.754Z,43.08
2019-03-12T20:39:11.125Z,43.35
2019-03-12T20:42:23.892Z,43.16
2019-03-12T20:46:05.047Z,43.62
2019-03-12T20:49:18.247Z,43.51
2019-03-12T20:52:35.299Z,43.52
2019-03-12T20:55:57.407Z,43.63
2019-03-12T20:59:11.583Z,43.34
2019-03-12T21:02:42.686Z,43.57
2019-03-12T21:06:03.381Z,43.51
2019-03-12T21:11:22.609Z,43.64
2019-03-12T21:14:46.779Z,43.59
2019-03-12T21:18:05.944Z,43.85
2019-03-12T21:21:33.956Z,43.74
2019-03-12T21:24:50.948Z,43.46
2019-03-12T21:28:07.367Z,42.98
2019-03-12T21:31:10.562Z,43.00
2019-03-12T21:34:13.823Z,43.69
2019-03-12T21:37:17.038Z,43.77
2019-03-12T21:40:20.224Z,43.76
2019-03-12T21:43:23.427Z,43.74
2019-03-12T21:46:26.627Z,43.32
2019-03-12T21:49:29.810Z,43.43
2019-03-12T21:52:33.009Z,44.70
2019-03-12T21:55:37.736Z,44.60
2019-03-12T21:58:39.537Z,45.71
2019-03-12T22:01:42.683Z,47.15
2019-03-12T22:04:45.930Z,50.81
2019-03-12T22:07:49.079Z,53.41
2019-03-12T22:10:52.163Z,51.33
2019-03-12T22:13:55.481Z,50.26
2019-03-12T22:16:59.331Z,50.63
2019-03-12T22:20:02.626Z,51.51
2019-03-12T22:23:10.750Z,51.81
2019-03-12T22:26:13.926Z,53.11
2019-03-12T22:29:17.167Z,52.71
2019-03-12T22:32:20.366Z,53.74
2019-03-12T22:35:23.579Z,52.65
2019-03-12T22:38:26.753Z,53.38
2019-03-12T22:41:29.967Z,54.24
2019-03-12T22:44:33.157Z,54.10
2019-03-12T22:47:36.310Z,54.27
2019-03-12T22:50:39.484Z,54.92
2019-03-12T22:53:42.635Z,55.48
2019-03-12T22:56:45.802Z,55.76
2019-03-12T22:59:48.999Z,55.43
2019-03-12T23:02:52.201Z,54.81
2019-03-12T23:05:55.415Z,55.97
2019-03-12T23:08:58.609Z,57.09
2019-03-12T23:12:01.925Z,56.84
2019-03-12T23:15:05.899Z,56.81
2019-03-12T23:18:09.164Z,56.43
2019-03-12T23:21:12.415Z,56.12
2019-03-12T23:24:15.580Z,57.03
2019-03-12T23:27:18.784Z,58.41
2019-03-12T23:30:21.981Z,59.73
2019-03-12T23:33:25.099Z,60.88
2019-03-12T23:36:28.268Z,62.25
2019-03-12T23:39:31.480Z,62.83
2019-03-12T23:42:34.672Z,61.78
2019-03-12T23:45:37.869Z,62.61
2019-03-12T23:48:41.049Z,62.84
2019-03-12T23:51:44.219Z,63.90
2019-03-12T23:54:48.149Z,64.84
2019-03-12T23:57:51.331Z,65.27
